createdAt,value
2018-10-17T00:00:54.195Z,28.27
2018-10-17T00:03:22.765Z,27.40
2018-10-17T00:05:51.434Z,30.80
2018-10-17T00:08:20.264Z,28.93
2018-10-17T00:10:48.771Z,29.87
2018-10-17T00:13:17.493Z,30.67
2018-10-17T00:17:15.470Z,29.83
2018-10-17T00:19:43.934Z,29.20
2018-10-17T00:22:13.094Z,28.40
2018-10-17T00:24:42.016Z,28.10
2018-10-17T00:27:10.976Z,29.77
2018-10-17T00:29:39.566Z,27.60
2018-10-17T00:32:08.416Z,27.80
2018-10-17T00:34:37.266Z,28.03
2018-10-17T00:37:06.264Z,28.17
2018-10-17T00:39:34.866Z,26.73
2018-10-17T00:42:03.724Z,27.60
2018-10-17T00:44:32.534Z,26.90
2018-10-17T00:47:01.392Z,26.13
2018-10-17T00:49:30.085Z,23.63
2018-10-17T00:51:58.844Z,26.30
2018-10-17T00:54:27.348Z,24.77
2018-10-17T00:56:55.817Z,26.03
2018-10-17T00:59:24.356Z,24.83
2018-10-17T01:01:53.067Z,23.83
2018-10-17T01:04:21.616Z,23.50
2018-10-17T01:06:50.159Z,25.30
2018-10-17T01:09:18.819Z,25.33
2018-10-17T01:11:47.524Z,22.90
2018-10-17T01:14:16.199Z,24.40
2018-10-17T01:16:45.227Z,23.17
2018-10-17T01:19:14.067Z,24.83
2018-10-17T01:21:42.902Z,24.63
2018-10-17T01:24:11.458Z,25.90
2018-10-17T01:26:40.358Z,25.00
2018-10-17T01:29:09.063Z,24.30
2018-10-17T01:31:37.672Z,23.87
2018-10-17T01:34:06.320Z,25.87
2018-10-17T01:36:34.816Z,24.03
2018-10-17T01:39:03.733Z,24.07
2018-10-17T01:41:32.360Z,22.47
2018-10-17T01:44:01.078Z,22.17
2018-10-17T01:46:29.845Z,21.23
2018-10-17T01:48:58.718Z,23.07
2018-10-17T01:51:27.196Z,21.73
2018-10-17T01:53:55.755Z,23.57
2018-10-17T01:56:24.866Z,22.33
2018-10-17T01:58:53.377Z,23.03
2018-10-17T02:01:21.875Z,22.90
2018-10-17T02:03:50.575Z,21.93
2018-10-17T02:06:19.341Z,21.70
2018-10-17T02:08:47.941Z,21.33
2018-10-17T02:11:16.439Z,23.97
2018-10-17T02:13:44.931Z,22.97
2018-10-17T02:16:13.611Z,22.87
2018-10-17T02:18:42.339Z,24.57
2018-10-17T02:21:10.868Z,23.23
2018-10-17T02:23:39.577Z,23.03
2018-10-17T02:26:08.246Z,22.70
2018-10-17T02:28:36.925Z,22.90
2018-10-17T02:31:05.635Z,24.33
2018-10-17T02:33:34.376Z,22.93
2018-10-17T02:36:03.005Z,23.10
2018-10-17T02:38:31.546Z,23.27
2018-10-17T02:41:00.045Z,22.70
2018-10-17T02:43:28.563Z,21.70
2018-10-17T02:45:57.222Z,22.90
2018-10-17T02:48:25.747Z,23.97
2018-10-17T02:50:54.328Z,23.73
2018-10-17T02:53:22.953Z,23.03
2018-10-17T02:55:51.666Z,24.20
2018-10-17T02:58:20.215Z,23.20
2018-10-17T03:00:48.826Z,22.63
2018-10-17T03:03:17.499Z,26.30
2018-10-17T03:05:46.053Z,23.20
2018-10-17T03:09:44.040Z,21.40
2018-10-17T03:12:12.667Z,23.63
2018-10-17T03:14:41.271Z,23.33
2018-10-17T03:17:10.045Z,22.10
2018-10-17T03:19:38.575Z,23.47
2018-10-17T03:22:07.095Z,23.17
2018-10-17T03:24:35.721Z,22.77
2018-10-17T03:27:04.663Z,22.20
2018-10-17T03:29:33.311Z,22.57
2018-10-17T03:32:02.122Z,21.67
2018-10-17T03:34:30.908Z,22.60
2018-10-17T03:36:59.650Z,22.17
2018-10-17T03:39:28.365Z,23.47
2018-10-17T03:41:56.938Z,24.10
2018-10-17T03:44:25.685Z,24.57
2018-10-17T03:46:54.183Z,23.53
2018-10-17T03:49:22.873Z,25.17
2018-10-17T03:51:51.673Z,23.53
2018-10-17T03:54:20.360Z,23.13
2018-10-17T03:56:48.991Z,22.97
2018-10-17T03:59:17.783Z,24.53
2018-10-17T04:01:46.158Z,23.87
2018-10-17T04:04:14.810Z,23.07
2018-10-17T04:06:43.550Z,23.73
2018-10-17T04:09:12.160Z,23.20
2018-10-17T04:11:40.766Z,22.03
2018-10-17T04:14:09.260Z,22.43
2018-10-17T04:16:37.845Z,22.30
2018-10-17T04:19:06.437Z,22.43
2018-10-17T04:21:35.169Z,22.37
2018-10-17T04:24:03.737Z,22.30
2018-10-17T04:26:32.551Z,21.73
2018-10-17T04:29:01.222Z,22.03
2018-10-17T04:31:29.950Z,21.90
2018-10-17T04:33:58.571Z,22.10
2018-10-17T04:36:27.142Z,22.77
2018-10-17T04:38:55.656Z,22.20
2018-10-17T04:41:24.333Z,21.80
2018-10-17T04:43:52.796Z,21.93
2018-10-17T04:46:21.639Z,22.87
2018-10-17T04:48:50.212Z,24.23
2018-10-17T04:51:19.321Z,23.70
2018-10-17T04:53:47.812Z,23.63
2018-10-17T04:56:16.430Z,23.80
2018-10-17T04:58:45.061Z,24.43
2018-10-17T05:01:13.837Z,26.30
2018-10-17T05:03:42.536Z,24.90
2018-10-17T05:06:11.218Z,23.47
2018-10-17T05:08:40.299Z,24.87
2018-10-17T05:11:08.875Z,27.10
2018-10-17T05:13:37.508Z,25.90
2018-10-17T05:16:06.367Z,27.80
2018-10-17T05:18:35.033Z,26.20
2018-10-17T05:21:03.892Z,26.73
2018-10-17T05:23:32.582Z,26.77
2018-10-17T05:26:01.285Z,24.70
2018-10-17T05:28:29.860Z,26.53
2018-10-17T05:30:58.516Z,27.37
2018-10-17T05:33:27.088Z,27.67
2018-10-17T05:35:55.844Z,28.53
2018-10-17T05:38:24.382Z,29.23
2018-10-17T05:40:52.930Z,30.27
2018-10-17T05:43:21.696Z,30.47
2018-10-17T05:45:50.406Z,30.90
2018-10-17T05:48:19.109Z,28.93
2018-10-17T05:50:47.827Z,28.60
2018-10-17T05:53:16.608Z,29.40
2018-10-17T05:55:45.766Z,29.70
2018-10-17T05:58:15.435Z,27.77
2018-10-17T06:00:46.162Z,27.27
2018-10-17T06:03:16.541Z,27.90
2018-10-17T06:05:45.686Z,28.93
2018-10-17T06:08:14.435Z,27.53
2018-10-17T06:10:43.498Z,26.60
2018-10-17T06:13:15.462Z,25.37
2018-10-17T06:15:48.066Z,25.73
2018-10-17T06:18:16.790Z,24.07
2018-10-17T06:20:45.461Z,26.27
2018-10-17T06:23:19.432Z,25.13
2018-10-17T06:25:48.325Z,23.20
2018-10-17T06:28:18.720Z,24.10
2018-10-17T06:30:49.556Z,22.53
2018-10-17T06:33:18.435Z,22.33
2018-10-17T06:35:48.208Z,22.33
2018-10-17T06:38:22.126Z,19.90
2018-10-17T06:40:53.669Z,21.13
2018-10-17T06:43:22.667Z,21.97
2018-10-17T06:45:52.579Z,24.50
2018-10-17T06:48:22.068Z,25.97
2018-10-17T06:50:53.431Z,26.53
2018-10-17T06:53:22.691Z,26.87
2018-10-17T06:55:51.519Z,28.87
2018-10-17T06:58:20.499Z,27.80
2018-10-17T07:00:49.657Z,28.83
2018-10-17T07:03:21.819Z,27.13
2018-10-17T07:05:52.451Z,28.07
2018-10-17T07:08:21.506Z,26.47
2018-10-17T07:10:53.842Z,25.97
2018-10-17T07:13:22.675Z,25.10
2018-10-17T07:15:55.245Z,26.47
2018-10-17T07:18:24.421Z,26.10
2018-10-17T07:20:56.316Z,29.20
2018-10-17T07:23:25.211Z,27.40
2018-10-17T07:25:57.751Z,26.90
2018-10-17T07:28:26.364Z,27.27
2018-10-17T07:30:55.196Z,25.60
2018-10-17T07:33:24.008Z,26.20
2018-10-17T07:35:56.642Z,28.77
2018-10-17T07:38:25.437Z,29.70
2018-10-17T07:40:54.358Z,30.00
2018-10-17T07:43:23.314Z,30.43
2018-10-17T07:45:51.876Z,30.60
2018-10-17T07:48:22.423Z,31.30
2018-10-17T07:50:51.611Z,31.27
2018-10-17T07:53:21.913Z,32.03
2018-10-17T07:55:55.740Z,29.83
2018-10-17T07:58:27.046Z,28.00
2018-10-17T08:00:57.196Z,23.50
2018-10-17T08:03:28.145Z,26.43
2018-10-17T08:05:56.915Z,25.37
2018-10-17T08:08:25.709Z,24.83
2018-10-17T08:10:55.403Z,25.70
2018-10-17T08:13:28.226Z,26.17
2018-10-17T08:15:58.602Z,24.10
2018-10-17T08:18:29.848Z,25.03
2018-10-17T08:20:58.932Z,23.43
2018-10-17T08:23:27.835Z,23.57
2018-10-17T08:26:11.740Z,23.93
2018-10-17T08:28:40.424Z,23.73
2018-10-17T08:31:12.990Z,22.87
2018-10-17T08:33:42.375Z,24.60
2018-10-17T08:36:12.244Z,22.83
2018-10-17T08:38:44.868Z,21.33
2018-10-17T08:41:38.730Z,21.70
2018-10-17T08:44:09.531Z,23.20
2018-10-17T08:46:38.676Z,23.20
2018-10-17T08:49:12.727Z,23.50
2018-10-17T08:51:43.036Z,20.80
2018-10-17T08:54:12.445Z,19.87
2018-10-17T08:56:42.158Z,19.40
2018-10-17T08:59:12.131Z,18.73
2018-10-17T09:01:42.444Z,20.17
2018-10-17T09:04:13.100Z,19.10
2018-10-17T09:06:42.291Z,20.93
2018-10-17T09:09:13.308Z,18.97
2018-10-17T09:11:42.683Z,19.90
2018-10-17T09:14:12.120Z,18.80
2018-10-17T09:16:41.729Z,19.97
2018-10-17T09:19:11.531Z,20.67
2018-10-17T09:21:47.563Z,20.67
2018-10-17T09:24:18.699Z,20.33
2018-10-17T09:26:50.636Z,18.40
2018-10-17T09:29:20.569Z,19.30
2018-10-17T09:31:51.055Z,18.00
2018-10-17T09:34:20.627Z,17.77
2018-10-17T09:36:49.881Z,17.40
2018-10-17T09:39:25.280Z,17.20
2018-10-17T09:41:55.759Z,17.93
2018-10-17T09:44:25.509Z,17.30
2018-10-17T09:46:58.250Z,17.00
2018-10-17T09:49:28.944Z,16.83
2018-10-17T09:51:58.572Z,15.07
2018-10-17T09:54:32.482Z,16.73
2018-10-17T09:57:02.746Z,16.73
2018-10-17T09:59:35.085Z,17.57
2018-10-17T10:02:09.020Z,16.53
2018-10-17T10:04:39.197Z,17.00
2018-10-17T10:07:08.332Z,17.27
2018-10-17T10:09:37.182Z,16.70
2018-10-17T10:12:07.212Z,18.77
2018-10-17T10:14:38.452Z,16.63
2018-10-17T10:17:08.431Z,16.50
2018-10-17T10:19:38.370Z,17.50
2018-10-17T10:22:07.491Z,16.67
2018-10-17T10:24:40.105Z,16.43
2018-10-17T10:27:10.569Z,14.43
2018-10-17T10:29:44.444Z,14.17
2018-10-17T10:32:14.981Z,14.20
2018-10-17T10:34:44.904Z,14.77
2018-10-17T10:37:14.582Z,13.87
2018-10-17T10:39:43.433Z,14.93
2018-10-17T10:42:12.870Z,14.60
2018-10-17T10:44:41.582Z,14.70
2018-10-17T10:47:11.237Z,15.17
2018-10-17T10:49:41.551Z,15.13
2018-10-17T10:52:10.412Z,15.00
2018-10-17T10:54:41.801Z,14.80
2018-10-17T10:57:11.220Z,14.40
2018-10-17T10:59:40.446Z,14.63
2018-10-17T11:02:12.682Z,14.00
2018-10-17T11:04:42.843Z,14.40
2018-10-17T11:07:14.725Z,14.00
2018-10-17T11:09:44.580Z,14.37
2018-10-17T11:12:16.954Z,14.07
2018-10-17T11:14:46.541Z,13.00
2018-10-17T11:17:16.692Z,13.80
2018-10-17T11:19:45.676Z,13.70
2018-10-17T11:22:14.509Z,12.60
2018-10-17T11:24:44.300Z,12.67
2018-10-17T11:27:13.021Z,12.47
2018-10-17T11:29:42.041Z,12.23
2018-10-17T11:32:11.792Z,12.13
2018-10-17T11:34:40.858Z,12.03
2018-10-17T11:37:09.940Z,11.40
2018-10-17T11:39:39.419Z,10.73
2018-10-17T11:42:14.610Z,10.47
2018-10-17T11:44:43.739Z,10.10
2018-10-17T11:47:12.715Z,9.40
2018-10-17T11:49:41.574Z,9.87
2018-10-17T11:52:10.422Z,10.40
2018-10-17T11:54:39.274Z,9.27
2018-10-17T11:57:11.376Z,9.23
2018-10-17T11:59:42.886Z,9.70
2018-10-17T12:02:17.793Z,9.37
2018-10-17T12:04:47.364Z,9.03
2018-10-17T12:07:16.372Z,7.77
2018-10-17T12:09:46.103Z,7.97
2018-10-17T12:12:16.244Z,8.50
2018-10-17T12:14:46.748Z,7.50
2018-10-17T12:17:15.386Z,7.03
2018-10-17T12:19:44.143Z,5.87
2018-10-17T12:22:12.830Z,6.20
2018-10-17T12:24:41.492Z,6.00
2018-10-17T12:27:10.213Z,6.17
2018-10-17T12:29:39.296Z,7.13
2018-10-17T12:32:08.398Z,7.10
2018-10-17T12:34:43.084Z,7.17
2018-10-17T12:37:12.695Z,6.43
2018-10-17T12:39:41.545Z,7.90
2018-10-17T12:42:11.249Z,7.43
2018-10-17T12:44:40.056Z,7.73
2018-10-17T12:47:10.270Z,7.60
2018-10-17T12:49:40.325Z,7.40
2018-10-17T12:52:09.324Z,7.20
2018-10-17T12:54:38.853Z,6.80
2018-10-17T12:57:08.881Z,7.30
2018-10-17T12:59:37.885Z,6.90
2018-10-17T13:02:08.554Z,7.40
2018-10-17T13:04:43.264Z,7.57
2018-10-17T13:07:13.003Z,6.10
2018-10-17T13:09:44.745Z,6.37
2018-10-17T13:12:14.475Z,6.00
2018-10-17T13:14:47.914Z,6.93
2018-10-17T13:17:16.598Z,7.30
2018-10-17T13:19:45.245Z,6.90
2018-10-17T13:22:16.045Z,6.17
2018-10-17T13:24:44.738Z,5.80
2018-10-17T13:27:13.706Z,5.87
2018-10-17T13:29:42.549Z,5.80
2018-10-17T13:32:11.234Z,6.67
2018-10-17T13:34:40.168Z,6.37
2018-10-17T13:37:14.633Z,6.17
2018-10-17T13:39:44.375Z,6.40
2018-10-17T13:42:15.361Z,6.00
2018-10-17T13:44:47.360Z,5.70
2018-10-17T13:47:16.412Z,5.50
2018-10-17T13:49:46.125Z,6.07
2018-10-17T13:52:14.927Z,5.17
2018-10-17T13:54:44.116Z,5.57
2018-10-17T13:57:12.891Z,5.93
2018-10-17T13:59:48.542Z,6.13
2018-10-17T14:02:21.966Z,5.20
2018-10-17T14:04:58.832Z,6.23
2018-10-17T14:07:27.448Z,5.17
2018-10-17T14:09:56.151Z,5.17
2018-10-17T14:12:25.116Z,5.53
2018-10-17T14:14:57.214Z,6.07
2018-10-17T14:17:29.139Z,6.80
2018-10-17T14:20:03.619Z,6.07
2018-10-17T14:22:32.573Z,4.97
2018-10-17T14:25:01.250Z,5.47
2018-10-17T14:27:31.219Z,5.70
2018-10-17T14:30:00.800Z,4.73
2018-10-17T14:32:29.359Z,5.13
2018-10-17T14:35:04.923Z,5.30
2018-10-17T14:37:33.805Z,5.40
2018-10-17T14:40:02.948Z,4.70
2018-10-17T14:45:24.713Z,5.50
2018-10-17T14:47:54.210Z,5.50
2018-10-17T14:50:25.271Z,5.47
2018-10-17T14:52:56.985Z,5.07
2018-10-17T14:55:26.680Z,5.17
2018-10-17T14:57:57.752Z,4.30
2018-10-17T15:00:26.483Z,4.07
2018-10-17T15:02:56.039Z,4.37
2018-10-17T15:08:04.085Z,4.10
2018-10-17T15:10:33.080Z,3.60
2018-10-17T15:13:03.708Z,3.90
2018-10-17T15:15:37.703Z,4.07
2018-10-17T15:18:07.757Z,4.03
2018-10-17T15:20:37.157Z,4.13
2018-10-17T15:23:06.448Z,3.33
2018-10-17T15:25:36.068Z,3.80
2018-10-17T15:28:04.773Z,4.10
2018-10-17T15:30:33.712Z,3.73
2018-10-17T15:33:03.267Z,3.57
2018-10-17T15:35:32.690Z,3.50
2018-10-17T15:38:01.309Z,2.93
2018-10-17T15:40:33.229Z,3.23
2018-10-17T15:43:03.453Z,3.50
2018-10-17T15:58:33.384Z,3.30
2018-10-17T16:01:02.647Z,3.60
2018-10-17T16:03:31.905Z,2.93
2018-10-17T16:06:00.796Z,3.20
2018-10-17T16:08:32.534Z,3.27
2018-10-17T16:11:06.750Z,3.30
2018-10-17T16:13:36.898Z,3.57
2018-10-17T16:16:05.749Z,3.23
2018-10-17T16:18:36.544Z,3.37
2018-10-17T16:21:10.472Z,3.00
2018-10-17T16:23:39.611Z,3.30
2018-10-17T16:26:13.353Z,3.23
2018-10-17T16:28:47.529Z,3.27
2018-10-17T16:31:16.900Z,3.40
2018-10-17T16:33:46.703Z,3.50
2018-10-17T16:36:17.131Z,3.50
2018-10-17T16:38:48.499Z,3.53
2018-10-17T16:41:17.320Z,4.00
2018-10-17T16:43:46.216Z,3.80
2018-10-17T16:46:16.062Z,4.13
2018-10-17T16:48:48.472Z,3.70
2018-10-17T16:51:17.287Z,4.23
2018-10-17T16:53:49.302Z,4.30
2018-10-17T16:56:18.324Z,4.27
2018-10-17T16:58:48.448Z,4.63
2018-10-17T17:01:17.356Z,4.53
2018-10-17T17:03:47.434Z,4.73
2018-10-17T17:06:17.323Z,4.90
2018-10-17T17:08:48.059Z,4.60
2018-10-17T17:11:18.847Z,4.70
2018-10-17T17:13:48.104Z,5.00
2018-10-17T17:16:19.629Z,5.10
2018-10-17T17:18:49.811Z,5.30
2018-10-17T17:21:18.743Z,5.60
2018-10-17T17:23:47.538Z,5.13
2018-10-17T17:26:16.459Z,5.60
2018-10-17T17:28:45.245Z,4.97
2018-10-17T17:31:14.168Z,6.17
2018-10-17T17:33:43.026Z,6.20
2018-10-17T17:36:11.910Z,6.50
2018-10-17T17:38:40.711Z,5.67
2018-10-17T17:41:10.825Z,5.63
2018-10-17T17:43:39.753Z,5.70
2018-10-17T17:46:08.627Z,6.47
2018-10-17T17:48:37.528Z,6.00
2018-10-17T17:51:06.448Z,6.10
2018-10-17T17:53:35.255Z,7.00
2018-10-17T17:56:07.533Z,8.30
2018-10-17T17:58:37.006Z,9.30
2018-10-17T18:01:05.942Z,8.40
2018-10-17T18:03:34.781Z,8.73
2018-10-17T18:06:03.829Z,11.73
2018-10-17T18:08:32.930Z,13.20
2018-10-17T18:11:17.801Z,17.17
2018-10-17T18:13:46.695Z,18.67
2018-10-17T18:16:15.485Z,17.90
2018-10-17T18:18:44.607Z,18.33
2018-10-17T18:21:13.570Z,20.37
2018-10-17T18:23:43.636Z,20.17
2018-10-17T18:26:12.862Z,19.23
2018-10-17T18:28:42.313Z,17.20
2018-10-17T18:31:11.361Z,16.03
2018-10-17T18:33:40.178Z,16.87
2018-10-17T18:36:09.220Z,14.27
2018-10-17T18:38:38.078Z,13.27
2018-10-17T18:41:07.051Z,12.27
2018-10-17T18:43:35.947Z,12.40
2018-10-17T18:46:04.999Z,10.90
2018-10-17T18:48:33.881Z,10.67
2018-10-17T18:51:03.023Z,10.90
2018-10-17T18:53:36.558Z,10.10
2018-10-17T18:56:05.664Z,10.57
2018-10-17T18:58:34.546Z,9.87
2018-10-17T19:01:03.413Z,9.73
2018-10-17T19:03:32.344Z,9.77
2018-10-17T19:06:01.164Z,10.30
2018-10-17T19:08:30.075Z,10.23
2018-10-17T19:10:58.991Z,10.13
2018-10-17T19:13:27.869Z,10.20
2018-10-17T19:15:56.724Z,10.30
2018-10-17T19:18:25.704Z,10.40
2018-10-17T19:20:54.846Z,10.07
2018-10-17T19:23:23.721Z,10.10
2018-10-17T19:25:52.426Z,10.57
2018-10-17T19:28:21.229Z,10.13
2018-10-17T19:30:50.751Z,9.97
2018-10-17T19:33:20.116Z,9.80
2018-10-17T19:35:49.477Z,10.40
2018-10-17T19:38:18.450Z,10.17
2018-10-17T19:40:48.016Z,11.67
2018-10-17T19:43:17.046Z,11.00
2018-10-17T19:45:46.377Z,10.90
2018-10-17T19:48:15.659Z,11.73
2018-10-17T19:50:44.854Z,12.40
2018-10-17T19:53:13.825Z,11.23
2018-10-17T19:55:42.951Z,11.23
2018-10-17T19:58:11.562Z,11.80
2018-10-17T20:00:40.440Z,10.70
2018-10-17T20:03:09.497Z,10.97
2018-10-17T20:05:38.330Z,12.37
2018-10-17T20:08:07.012Z,11.40
2018-10-17T20:10:35.824Z,11.33
2018-10-17T20:13:04.720Z,11.67
2018-10-17T20:15:33.405Z,11.70
2018-10-17T20:18:02.218Z,12.50
2018-10-17T20:20:31.180Z,13.03
2018-10-17T20:23:00.004Z,13.33
2018-10-17T20:25:29.770Z,13.90
2018-10-17T20:27:58.540Z,14.77
2018-10-17T20:30:27.226Z,15.20
2018-10-17T20:32:56.343Z,16.67
2018-10-17T20:35:25.186Z,16.00
2018-10-17T20:37:54.224Z,15.40
2018-10-17T20:40:23.212Z,15.50
2018-10-17T20:42:51.918Z,14.57
2018-10-17T20:45:20.681Z,15.00
2018-10-17T20:47:50.106Z,14.43
2018-10-17T20:50:18.942Z,14.00
2018-10-17T20:52:47.793Z,12.90
2018-10-17T20:55:17.792Z,14.47
2018-10-17T20:57:47.039Z,13.47
2018-10-17T21:00:15.801Z,12.20
2018-10-17T21:02:44.270Z,14.17
2018-10-17T21:05:12.957Z,12.13
2018-10-17T21:07:41.586Z,12.97
2018-10-17T21:10:10.139Z,12.87
2018-10-17T21:12:38.789Z,13.33
2018-10-17T21:15:08.110Z,12.53
2018-10-17T21:17:36.697Z,13.33
2018-10-17T21:20:05.707Z,13.70
2018-10-17T21:22:34.533Z,12.53
2018-10-17T21:25:03.051Z,11.77
2018-10-17T21:27:31.634Z,11.67
2018-10-17T21:30:00.448Z,13.20
2018-10-17T21:32:28.933Z,12.03
2018-10-17T21:34:57.651Z,12.87
2018-10-17T21:37:26.575Z,11.80
2018-10-17T21:39:55.253Z,12.27
2018-10-17T21:42:23.936Z,12.23
2018-10-17T21:44:52.675Z,12.10
2018-10-17T21:47:21.413Z,13.17
2018-10-17T21:49:50.105Z,12.33
2018-10-17T21:52:18.789Z,12.63
2018-10-17T21:54:47.414Z,12.57
2018-10-17T21:57:16.153Z,12.70
2018-10-17T21:59:44.828Z,12.90
2018-10-17T22:02:13.460Z,13.13
2018-10-17T22:04:42.149Z,12.90
2018-10-17T22:07:10.856Z,13.43
2018-10-17T22:09:39.404Z,12.13
2018-10-17T22:12:08.157Z,14.70
2018-10-17T22:14:36.796Z,13.50
2018-10-17T22:17:07.070Z,12.07
2018-10-17T22:19:36.911Z,13.13
2018-10-17T22:22:06.230Z,12.27
2018-10-17T22:24:34.970Z,12.73
2018-10-17T22:27:03.641Z,11.87
2018-10-17T22:29:32.205Z,12.40
2018-10-17T22:32:00.953Z,12.67
2018-10-17T22:34:29.600Z,12.80
2018-10-17T22:36:58.265Z,12.60
2018-10-17T22:39:26.768Z,13.13
2018-10-17T22:41:55.418Z,13.57
2018-10-17T22:44:24.009Z,12.07
2018-10-17T22:46:52.705Z,11.97
2018-10-17T22:49:21.320Z,11.30
2018-10-17T22:51:49.962Z,11.80
2018-10-17T22:54:18.678Z,11.63
2018-10-17T22:56:47.332Z,12.57
2018-10-17T22:59:15.863Z,11.93
2018-10-17T23:01:44.547Z,12.10
2018-10-17T23:04:13.257Z,12.27
2018-10-17T23:06:42.534Z,11.13
2018-10-17T23:09:13.180Z,11.20
2018-10-17T23:11:42.532Z,11.03
2018-10-17T23:14:11.909Z,11.00
2018-10-17T23:16:41.693Z,11.30
2018-10-17T23:19:11.187Z,11.10
2018-10-17T23:21:40.300Z,12.43
2018-10-17T23:24:09.239Z,12.40
2018-10-17T23:26:37.966Z,10.97
2018-10-17T23:29:06.910Z,11.83
2018-10-17T23:31:35.795Z,12.10
2018-10-17T23:34:04.693Z,12.23
2018-10-17T23:36:33.484Z,11.07
2018-10-17T23:39:02.462Z,11.70
2018-10-17T23:41:32.697Z,11.13
2018-10-17T23:44:02.587Z,11.97
2018-10-17T23:46:31.522Z,11.37
2018-10-17T23:49:01.098Z,11.70
2018-10-17T23:51:30.454Z,11.83
2018-10-17T23:53:59.314Z,11.47
2018-10-17T23:56:28.079Z,12.97
2018-10-17T23:58:56.930Z,11.70
